Time;durP1;ratioP1;P1;durP2;ratioP2;P2;SDS_P1;SDS_P2;PMS_P1;PMS_P2;Temp;Humidity;BMP_temperature;BMP_pressure;BME280_temperature;BME280_humidity;BME280_pressure;Samples;Min_cycle;Max_cycle;Signal;HPM_P1;HPM_P2
2022/11/22 00:02:09;;;;;;;8.40;7.60;;;;;;;;;;5116673;27;20398;-86
2022/11/22 00:04:35;;;;;;;8.52;7.82;;;;;;;;;;5134717;27;20860;-87
2022/11/22 00:07:01;;;;;;;8.13;7.33;;;;;;;;;;5134838;27;20394;-87
2022/11/22 00:09:27;;;;;;;7.80;7.20;;;;;;;;;;5134639;27;20915;-87
2022/11/22 00:11:53;;;;;;;7.57;6.90;;;;;;;;;;5134029;27;20502;-87
2022/11/22 00:14:19;;;;;;;7.45;6.85;;;;;;;;;;5131150;27;20381;-86
2022/11/22 00:16:45;;;;;;;7.93;7.32;;;;;;;;;;5124940;27;20369;-86
2022/11/22 00:19:11;;;;;;;7.90;7.30;;;;;;;;;;5134388;27;20887;-86
2022/11/22 00:21:37;;;;;;;7.00;6.43;;;;;;;;;;5134196;27;20374;-86
2022/11/22 00:24:03;;;;;;;7.13;6.53;;;;;;;;;;5134035;27;20375;-87
2022/11/22 00:26:29;;;;;;;6.97;6.38;;;;;;;;;;5133662;27;20397;-87
2022/11/22 00:28:55;;;;;;;6.65;6.03;;;;;;;;;;5133746;27;20863;-87
2022/11/22 00:31:21;;;;;;;6.45;5.95;;;;;;;;;;5134353;27;20436;-87
2022/11/22 00:33:47;;;;;;;9.90;8.90;;;;;;;;;;5134052;27;20367;-87
2022/11/22 00:36:15;;;;;;;10.00;9.00;;;;;;;;;;5134024;27;20930;-86
2022/11/22 00:38:41;;;;;;;17.48;13.57;;;;;;;;;;5133622;27;20457;-87
2022/11/22 00:41:07;;;;;;;13.32;10.38;;;;;;;;;;5133254;27;20370;-86
2022/11/22 00:43:33;;;;;;;32.78;20.20;;;;;;;;;;5133567;27;20731;-87
2022/11/22 00:46:00;;;;;;;17.80;13.75;;;;;;;;;;5133391;27;20383;-87
2022/11/22 00:48:26;;;;;;;26.52;17.35;;;;;;;;;;5133520;27;20381;-87
2022/11/22 00:50:52;;;;;;;21.15;14.20;;;;;;;;;;5115203;27;20393;-87
2022/11/22 00:53:18;;;;;;;14.57;12.07;;;;;;;;;;5133259;27;20487;-86
2022/11/22 00:55:47;;;;;;;11.68;10.57;;;;;;;;;;5133044;27;20410;-87
2022/11/22 00:58:13;;;;;;;11.23;10.32;;;;;;;;;;5133054;27;20836;-87
2022/11/22 01:00:39;;;;;;;8.52;7.82;;;;;;;;;;5114867;27;20457;-86
2022/11/22 01:03:05;;;;;;;9.50;8.60;;;;;;;;;;5132983;27;20867;-87
2022/11/22 01:05:31;;;;;;;10.30;9.50;;;;;;;;;;5135336;27;20482;-87
2022/11/22 01:07:57;;;;;;;9.40;8.68;;;;;;;;;;5132944;27;20374;-87
2022/11/22 01:10:23;;;;;;;8.60;8.00;;;;;;;;;;5132886;27;20735;-86
2022/11/22 01:12:49;;;;;;;9.38;8.57;;;;;;;;;;5123509;27;20408;-86
2022/11/22 01:15:15;;;;;;;9.93;9.02;;;;;;;;;;5112929;28;20375;-87
2022/11/22 01:17:41;;;;;;;9.98;9.18;;;;;;;;;;5123817;27;20401;-86
2022/11/22 01:20:08;;;;;;;10.65;9.57;;;;;;;;;;5132807;27;20736;-86
2022/11/22 01:22:34;;;;;;;10.60;9.32;;;;;;;;;;5114247;27;20935;-86
2022/11/22 01:25:00;;;;;;;10.07;9.18;;;;;;;;;;5132766;27;20445;-87
2022/11/22 01:27:26;;;;;;;9.97;9.07;;;;;;;;;;5132604;27;20387;-87
2022/11/22 01:29:52;;;;;;;8.45;7.75;;;;;;;;;;5132767;27;20397;-86
2022/11/22 01:32:18;;;;;;;8.60;7.90;;;;;;;;;;5114050;27;20410;-86
2022/11/22 01:34:44;;;;;;;8.32;7.72;;;;;;;;;;5132458;27;20397;-87
2022/11/22 01:37:09;;;;;;;8.30;7.60;;;;;;;;;;5135319;27;20366;-87
2022/11/22 01:39:36;;;;;;;7.50;7.00;;;;;;;;;;5132507;27;20379;-86
2022/11/22 01:42:02;;;;;;;8.63;7.82;;;;;;;;;;5131700;27;20386;-86
2022/11/22 01:44:29;;;;;;;8.97;8.17;;;;;;;;;;5129096;27;20380;-87
2022/11/22 01:47:01;;;;;;;8.88;8.05;;;;;;;;;;5132671;27;20394;-86
2022/11/22 01:49:33;;;;;;;10.23;9.43;;;;;;;;;;5132374;27;20378;-86
2022/11/22 01:52:05;;;;;;;10.50;9.60;;;;;;;;;;5113011;28;20481;-86
2022/11/22 01:54:32;;;;;;;9.93;9.13;;;;;;;;;;5113758;27;20828;-86
2022/11/22 01:57:04;;;;;;;9.55;8.75;;;;;;;;;;5114025;28;20378;-87
2022/11/22 01:59:32;;;;;;;10.23;9.43;;;;;;;;;;5132280;27;20424;-87
2022/11/22 02:01:58;;;;;;;10.80;9.90;;;;;;;;;;5132271;27;20416;-86
2022/11/22 02:04:27;;;;;;;11.02;10.10;;;;;;;;;;5132734;27;20398;-86
2022/11/22 02:06:56;;;;;;;10.60;9.70;;;;;;;;;;5132107;27;20374;-87
2022/11/22 02:09:22;;;;;;;10.07;9.27;;;;;;;;;;5132722;27;20405;-86
2022/11/22 02:11:50;;;;;;;8.95;8.25;;;;;;;;;;5133766;27;20402;-86
2022/11/22 02:14:18;;;;;;;8.65;7.95;;;;;;;;;;5134370;27;20444;-87
2022/11/22 02:16:45;;;;;;;8.43;7.63;;;;;;;;;;5123226;27;20376;-86
2022/11/22 02:19:16;;;;;;;9.60;8.00;;;;;;;;;;5136606;27;20375;-86
2022/11/22 02:21:43;;;;;;;9.10;8.40;;;;;;;;;;5137542;27;21008;-86
2022/11/22 02:24:16;;;;;;;9.07;8.38;;;;;;;;;;5137099;27;20793;-86
2022/11/22 02:26:42;;;;;;;9.00;8.30;;;;;;;;;;5137383;27;20381;-87
2022/11/22 02:29:08;;;;;;;8.70;8.07;;;;;;;;;;5136855;27;20382;-87
2022/11/22 02:31:34;;;;;;;8.93;8.13;;;;;;;;;;5136472;27;20910;-87
2022/11/22 02:34:00;;;;;;;7.90;7.30;;;;;;;;;;5136535;27;20377;-86
2022/11/22 02:36:26;;;;;;;8.90;8.10;;;;;;;;;;5136493;27;20518;-87
2022/11/22 02:38:53;;;;;;;8.65;8.05;;;;;;;;;;5136559;27;20411;-86
2022/11/22 02:41:19;;;;;;;8.63;7.93;;;;;;;;;;5136127;27;20389;-87
2022/11/22 02:43:46;;;;;;;8.77;8.00;;;;;;;;;;5117926;27;20886;-87
2022/11/22 02:46:19;;;;;;;8.20;7.40;;;;;;;;;;5135927;27;20399;-86
2022/11/22 02:48:45;;;;;;;6.55;6.03;;;;;;;;;;5136460;27;20449;-86
2022/11/22 02:51:15;;;;;;;7.27;6.57;;;;;;;;;;5136013;27;20409;-87
2022/11/22 02:53:48;;;;;;;7.55;6.85;;;;;;;;;;5135930;27;20380;-86
2022/11/22 02:56:14;;;;;;;7.05;6.32;;;;;;;;;;5128456;27;20447;-87
2022/11/22 02:58:40;;;;;;;7.13;6.55;;;;;;;;;;5122759;27;20856;-86
2022/11/22 03:01:06;;;;;;;6.85;6.20;;;;;;;;;;5134020;27;20458;-87
2022/11/22 03:03:33;;;;;;;6.35;5.78;;;;;;;;;;5131854;27;20385;-88
2022/11/22 03:06:01;;;;;;;7.97;6.60;;;;;;;;;;5123381;27;20379;-87
2022/11/22 03:08:27;;;;;;;7.95;6.65;;;;;;;;;;5116233;27;20392;-87
2022/11/22 03:10:53;;;;;;;7.10;6.40;;;;;;;;;;5113121;27;20376;-86
2022/11/22 03:13:19;;;;;;;7.03;6.43;;;;;;;;;;5113900;27;20958;-87
2022/11/22 03:15:48;;;;;;;7.07;6.38;;;;;;;;;;5094928;27;20393;-87
2022/11/22 03:18:14;;;;;;;6.90;6.22;;;;;;;;;;5115280;27;20430;-86
2022/11/22 03:20:40;;;;;;;8.35;6.10;;;;;;;;;;5111812;27;20372;-86
2022/11/22 03:23:06;;;;;;;8.07;5.90;;;;;;;;;;5114286;27;20924;-87
2022/11/22 03:25:32;;;;;;;6.75;6.13;;;;;;;;;;5116144;27;20390;-87
2022/11/22 03:27:58;;;;;;;6.55;6.05;;;;;;;;;;5122087;27;20376;-85
2022/11/22 03:30:24;;;;;;;5.82;5.25;;;;;;;;;;5113415;27;20373;-86
2022/11/22 03:32:49;;;;;;;7.03;5.20;;;;;;;;;;5113343;27;20407;-87
2022/11/22 03:35:15;;;;;;;6.53;5.93;;;;;;;;;;5117609;27;20853;-86
2022/11/22 03:37:41;;;;;;;6.35;5.70;;;;;;;;;;5115031;27;20382;-87
2022/11/22 03:40:08;;;;;;;7.50;5.60;;;;;;;;;;5112775;27;20448;-85
2022/11/22 03:42:34;;;;;;;7.05;5.45;;;;;;;;;;5112926;27;20380;-86
2022/11/22 03:45:00;;;;;;;5.82;5.13;;;;;;;;;;5111711;27;20376;-86
2022/11/22 03:47:26;;;;;;;5.82;5.20;;;;;;;;;;5111718;27;20429;-87
2022/11/22 03:49:52;;;;;;;5.75;5.00;;;;;;;;;;5113761;27;20389;-86
2022/11/22 03:52:17;;;;;;;8.67;5.87;;;;;;;;;;5112973;27;20392;-85
2022/11/22 03:54:43;;;;;;;7.18;5.00;;;;;;;;;;5096538;27;20863;-86
2022/11/22 03:57:09;;;;;;;5.50;5.00;;;;;;;;;;5114323;27;20385;-86
2022/11/22 03:59:35;;;;;;;7.30;5.15;;;;;;;;;;5115476;27;20441;-86
2022/11/22 04:02:01;;;;;;;6.53;4.95;;;;;;;;;;5115776;27;20396;-86
2022/11/22 04:04:27;;;;;;;5.68;5.10;;;;;;;;;;5113670;27;20384;-86
2022/11/22 04:06:53;;;;;;;8.50;5.22;;;;;;;;;;5132260;27;20389;-87
2022/11/22 04:09:19;;;;;;;6.72;5.47;;;;;;;;;;5134479;27;20859;-86
2022/11/22 04:11:45;;;;;;;6.00;4.67;;;;;;;;;;5134155;27;20410;-86
2022/11/22 04:16:56;;;;;;;5.63;4.40;;;;;;;;;;5125606;27;20460;-86
2022/11/22 04:19:22;;;;;;;7.70;4.70;;;;;;;;;;5133832;27;20374;-86
2022/11/22 04:21:48;;;;;;;5.32;4.82;;;;;;;;;;5130867;27;20370;-86
2022/11/22 04:26:59;;;;;;;6.63;5.38;;;;;;;;;;5133950;27;20401;-85
2022/11/22 04:29:25;;;;;;;7.57;5.40;;;;;;;;;;5134102;27;20387;-85
2022/11/22 04:34:36;;;;;;;6.88;5.43;;;;;;;;;;5127490;27;20376;-85
2022/11/22 04:37:02;;;;;;;7.03;5.25;;;;;;;;;;5119141;27;20403;-85
2022/11/22 04:39:29;;;;;;;8.63;6.20;;;;;;;;;;5110496;27;20379;-85
2022/11/22 04:44:41;;;;;;;6.80;5.50;;;;;;;;;;5132690;27;20437;-85
2022/11/22 04:47:10;;;;;;;7.47;5.88;;;;;;;;;;5133344;27;20391;-85
2022/11/22 04:49:36;;;;;;;9.02;5.95;;;;;;;;;;5132747;27;20393;-84
2022/11/22 04:54:48;;;;;;;7.50;4.90;;;;;;;;;;5133235;27;20911;-85
2022/11/22 04:57:14;;;;;;;8.32;5.22;;;;;;;;;;5133076;27;20367;-85
2022/11/22 04:59:40;;;;;;;8.52;5.63;;;;;;;;;;5114622;27;20508;-85
2022/11/22 05:02:06;;;;;;;9.32;5.25;;;;;;;;;;5132985;27;20381;-85
2022/11/22 05:04:32;;;;;;;7.70;4.95;;;;;;;;;;5133123;27;20391;-85
2022/11/22 05:06:58;;;;;;;8.70;4.50;;;;;;;;;;5132881;27;20371;-85
2022/11/22 05:09:24;;;;;;;8.02;5.43;;;;;;;;;;5129641;27;20371;-84
2022/11/22 05:11:50;;;;;;;8.70;4.67;;;;;;;;;;5132673;27;20566;-85
2022/11/22 05:14:16;;;;;;;7.40;4.93;;;;;;;;;;5135623;27;20705;-85
2022/11/22 05:16:42;;;;;;;9.05;4.88;;;;;;;;;;5124040;27;20379;-85
2022/11/22 05:19:08;;;;;;;6.63;4.30;;;;;;;;;;5132832;27;20379;-85
2022/11/22 05:21:37;;;;;;;7.55;4.28;;;;;;;;;;5132865;27;20379;-85
2022/11/22 05:24:03;;;;;;;7.65;4.47;;;;;;;;;;5135451;27;20406;-85
2022/11/22 05:26:33;;;;;;;9.15;4.57;;;;;;;;;;5131379;27;20413;-86
2022/11/22 05:29:03;;;;;;;7.65;4.20;;;;;;;;;;5113796;27;20855;-85
2022/11/22 05:31:29;;;;;;;7.97;4.32;;;;;;;;;;5131757;27;20402;-85
2022/11/22 05:33:56;;;;;;;6.38;4.07;;;;;;;;;;5131951;27;20373;-85
2022/11/22 05:36:23;;;;;;;9.45;4.60;;;;;;;;;;5132075;27;20414;-85
2022/11/22 05:38:49;;;;;;;8.48;4.07;;;;;;;;;;5120719;27;20388;-85
2022/11/22 05:41:15;;;;;;;8.13;4.10;;;;;;;;;;5128149;27;20385;-85
2022/11/22 05:43:41;;;;;;;7.25;4.18;;;;;;;;;;5133045;27;20572;-85
2022/11/22 05:46:08;;;;;;;10.10;4.00;;;;;;;;;;5132973;27;20402;-85
2022/11/22 05:48:35;;;;;;;9.95;4.10;;;;;;;;;;5140596;27;20393;-85
2022/11/22 05:51:08;;;;;;;7.05;4.07;;;;;;;;;;5141242;27;20375;-85
2022/11/22 05:53:35;;;;;;;10.05;4.10;;;;;;;;;;5138548;27;20386;-86
2022/11/22 05:56:05;;;;;;;8.05;3.60;;;;;;;;;;5138438;27;20370;-87
2022/11/22 05:58:31;;;;;;;6.40;3.50;;;;;;;;;;5139454;27;20359;-87
2022/11/22 06:01:01;;;;;;;5.63;3.30;;;;;;;;;;5119438;27;20380;-86
2022/11/22 06:03:27;;;;;;;7.97;3.50;;;;;;;;;;5137608;27;20390;-86
2022/11/22 06:05:53;;;;;;;9.02;3.40;;;;;;;;;;5137186;27;20378;-86
2022/11/22 06:08:19;;;;;;;6.10;3.20;;;;;;;;;;5137090;27;20890;-86
2022/11/22 06:10:45;;;;;;;10.73;3.40;;;;;;;;;;5137078;27;20469;-86
2022/11/22 06:13:11;;;;;;;9.52;3.80;;;;;;;;;;5118200;27;20586;-85
2022/11/22 06:15:37;;;;;;;7.85;4.18;;;;;;;;;;5132107;27;20886;-85
2022/11/22 06:18:03;;;;;;;10.60;3.70;;;;;;;;;;5111319;27;20378;-86
2022/11/22 06:20:29;;;;;;;9.13;3.58;;;;;;;;;;5142105;27;20828;-86
2022/11/22 06:22:57;;;;;;;11.00;3.73;;;;;;;;;;5134404;27;20368;-86
2022/11/22 06:25:23;;;;;;;12.38;3.63;;;;;;;;;;5114439;28;20748;-85
2022/11/22 06:27:49;;;;;;;7.93;3.45;;;;;;;;;;5115655;28;20380;-86
2022/11/22 06:30:15;;;;;;;14.35;3.75;;;;;;;;;;5120048;27;20739;-85
2022/11/22 06:32:41;;;;;;;8.70;3.53;;;;;;;;;;5127942;27;20459;-85
2022/11/22 06:35:08;;;;;;;12.50;4.18;;;;;;;;;;5126011;27;20439;-85
2022/11/22 06:37:34;;;;;;;11.48;4.60;;;;;;;;;;5125653;27;20390;-85
2022/11/22 06:40:00;;;;;;;11.20;4.20;;;;;;;;;;5119185;27;20412;-85
2022/11/22 06:42:26;;;;;;;10.48;3.70;;;;;;;;;;5120050;27;20390;-86
2022/11/22 06:44:52;;;;;;;13.52;4.03;;;;;;;;;;5136300;27;20386;-86
2022/11/22 06:47:18;;;;;;;7.50;2.87;;;;;;;;;;5135957;27;20856;-86
2022/11/22 06:49:45;;;;;;;8.90;2.70;;;;;;;;;;5131967;27;20400;-85
2022/11/22 06:52:11;;;;;;;6.82;2.80;;;;;;;;;;5129295;27;20406;-85
2022/11/22 06:54:37;;;;;;;7.88;2.88;;;;;;;;;;5125491;27;20365;-86
2022/11/22 06:57:03;;;;;;;8.15;2.50;;;;;;;;;;5126062;27;20396;-85
2022/11/22 06:59:29;;;;;;;7.32;2.47;;;;;;;;;;5120922;27;20372;-85
2022/11/22 07:01:55;;;;;;;9.35;2.47;;;;;;;;;;5134522;27;20394;-86
2022/11/22 07:04:21;;;;;;;9.77;2.43;;;;;;;;;;5134244;27;20402;-84
2022/11/22 07:06:47;;;;;;;6.63;2.65;;;;;;;;;;5132473;27;20389;-85
2022/11/22 07:09:13;;;;;;;6.00;2.47;;;;;;;;;;5135523;27;20452;-85
2022/11/22 07:11:40;;;;;;;9.23;2.65;;;;;;;;;;5133476;27;20402;-86
2022/11/22 07:14:06;;;;;;;10.20;2.45;;;;;;;;;;5123923;27;20383;-86
2022/11/22 07:16:32;;;;;;;7.20;2.28;;;;;;;;;;5126601;27;20377;-85
2022/11/22 07:19:01;;;;;;;6.30;2.17;;;;;;;;;;5135626;27;20789;-86
2022/11/22 07:21:27;;;;;;;10.10;2.80;;;;;;;;;;5135583;27;20452;-85
2022/11/22 07:23:54;;;;;;;8.63;2.80;;;;;;;;;;5135431;27;20404;-85
2022/11/22 07:26:21;;;;;;;8.02;2.20;;;;;;;;;;5135398;27;20917;-86
2022/11/22 07:28:47;;;;;;;6.72;2.58;;;;;;;;;;5134431;27;20743;-85
2022/11/22 07:31:14;;;;;;;8.60;2.55;;;;;;;;;;5137729;27;20478;-85
2022/11/22 07:33:40;;;;;;;6.63;2.17;;;;;;;;;;5116602;27;20386;-85
2022/11/22 07:36:11;;;;;;;8.38;2.38;;;;;;;;;;5116783;27;20744;-86
2022/11/22 07:38:37;;;;;;;8.88;2.38;;;;;;;;;;5135162;27;20432;-86
2022/11/22 07:41:03;;;;;;;5.57;1.77;;;;;;;;;;5135145;27;20382;-86
2022/11/22 07:43:30;;;;;;;8.68;2.13;;;;;;;;;;5135012;27;20383;-86
2022/11/22 07:46:02;;;;;;;8.13;1.98;;;;;;;;;;5131582;27;20872;-85
2022/11/22 07:48:28;;;;;;;6.25;1.80;;;;;;;;;;5135352;27;20548;-85
2022/11/22 07:50:55;;;;;;;5.77;1.67;;;;;;;;;;5134972;27;20407;-85
2022/11/22 07:53:21;;;;;;;6.45;2.00;;;;;;;;;;5134752;27;20402;-86
2022/11/22 07:55:47;;;;;;;8.60;2.15;;;;;;;;;;5134909;27;20388;-85
2022/11/22 07:58:13;;;;;;;10.68;2.10;;;;;;;;;;5134170;27;20379;-88
2022/11/22 08:00:39;;;;;;;7.13;1.85;;;;;;;;;;5134704;27;20803;-87
2022/11/22 08:03:06;;;;;;;6.32;2.35;;;;;;;;;;5134568;27;20375;-87
2022/11/22 08:05:32;;;;;;;8.10;2.10;;;;;;;;;;5134726;27;20415;-87
2022/11/22 08:07:58;;;;;;;7.35;2.00;;;;;;;;;;5134530;27;20443;-87
2022/11/22 08:10:24;;;;;;;7.95;3.03;;;;;;;;;;5133942;27;20398;-86
2022/11/22 08:12:50;;;;;;;8.23;1.70;;;;;;;;;;5134310;27;20796;-86
2022/11/22 08:15:16;;;;;;;6.18;1.92;;;;;;;;;;5133887;27;20379;-86
2022/11/22 08:17:43;;;;;;;10.60;2.45;;;;;;;;;;5129335;27;20371;-86
2022/11/22 08:20:09;;;;;;;7.97;1.98;;;;;;;;;;5134266;27;20855;-86
2022/11/22 08:22:35;;;;;;;5.05;1.70;;;;;;;;;;5134243;27;20375;-86
2022/11/22 08:25:01;;;;;;;6.43;2.75;;;;;;;;;;5134200;27;20859;-86
2022/11/22 08:27:27;;;;;;;9.30;2.30;;;;;;;;;;5134347;27;20382;-85
2022/11/22 08:29:53;;;;;;;5.87;1.77;;;;;;;;;;5134129;27;20386;-85
2022/11/22 08:32:19;;;;;;;9.63;1.95;;;;;;;;;;5133931;27;20406;-86
2022/11/22 08:34:45;;;;;;;7.32;1.80;;;;;;;;;;5134322;27;20371;-86
2022/11/22 08:37:11;;;;;;;6.68;1.90;;;;;;;;;;5134072;27;20424;-87
2022/11/22 08:39:37;;;;;;;9.18;2.00;;;;;;;;;;5133851;27;20378;-87
2022/11/22 08:42:05;;;;;;;5.80;1.88;;;;;;;;;;5115294;27;20407;-85
2022/11/22 08:44:31;;;;;;;6.63;1.80;;;;;;;;;;5133867;27;20804;-86
2022/11/22 08:46:57;;;;;;;4.72;1.60;;;;;;;;;;5133820;27;20433;-85
2022/11/22 08:49:23;;;;;;;6.70;1.77;;;;;;;;;;5133792;27;20391;-85
2022/11/22 08:51:49;;;;;;;7.50;1.85;;;;;;;;;;5133634;27;20401;-85
2022/11/22 08:54:15;;;;;;;8.38;1.75;;;;;;;;;;5133884;27;20940;-86
2022/11/22 08:56:41;;;;;;;8.17;2.27;;;;;;;;;;5115110;27;20374;-86
2022/11/22 08:59:07;;;;;;;7.10;1.88;;;;;;;;;;5133652;27;20843;-86
2022/11/22 09:01:33;;;;;;;9.47;1.87;;;;;;;;;;5133394;27;20378;-86
2022/11/22 09:03:59;;;;;;;7.50;2.30;;;;;;;;;;5133739;27;20476;-86
2022/11/22 09:06:25;;;;;;;6.22;1.83;;;;;;;;;;5134637;27;20370;-86
2022/11/22 09:08:51;;;;;;;6.43;1.80;;;;;;;;;;5151027;27;20779;-85
2022/11/22 09:11:19;;;;;;;5.70;1.65;;;;;;;;;;5147590;27;20387;-83
2022/11/22 09:13:45;;;;;;;7.18;2.08;;;;;;;;;;5134189;27;20374;-85
2022/11/22 09:16:13;;;;;;;7.15;1.85;;;;;;;;;;5128878;27;20391;-84
2022/11/22 09:18:39;;;;;;;6.03;1.75;;;;;;;;;;5127130;27;20382;-84
2022/11/22 09:21:06;;;;;;;6.82;2.03;;;;;;;;;;5123747;27;20410;-82
2022/11/22 09:23:32;;;;;;;7.80;2.10;;;;;;;;;;5143384;27;20390;-83
2022/11/22 09:26:04;;;;;;;8.85;1.73;;;;;;;;;;5136952;27;20382;-85
2022/11/22 09:28:30;;;;;;;4.70;1.52;;;;;;;;;;5136503;27;20418;-84
2022/11/22 09:31:07;;;;;;;7.00;1.83;;;;;;;;;;5116399;27;20477;-86
2022/11/22 09:33:34;;;;;;;7.22;1.80;;;;;;;;;;5133334;27;20441;-84
2022/11/22 09:36:00;;;;;;;10.07;2.10;;;;;;;;;;5132682;27;20433;-84
2022/11/22 09:38:26;;;;;;;8.63;2.05;;;;;;;;;;5133210;27;20359;-83
2022/11/22 09:40:52;;;;;;;7.25;1.98;;;;;;;;;;5132755;27;20903;-84
2022/11/22 09:43:37;;;;;;;5.53;1.88;;;;;;;;;;5132777;27;20455;-84
2022/11/22 09:46:26;;;;;;;7.07;1.75;;;;;;;;;;5132520;27;20401;-84
2022/11/22 09:49:04;;;;;;;5.85;1.63;;;;;;;;;;5119503;27;20386;-84
2022/11/22 09:51:35;;;;;;;5.13;1.60;;;;;;;;;;5132476;27;20398;-85
2022/11/22 09:54:05;;;;;;;4.90;1.45;;;;;;;;;;5132826;27;20472;-86
2022/11/22 09:56:33;;;;;;;6.25;1.55;;;;;;;;;;5129641;27;20363;-85
2022/11/22 09:59:03;;;;;;;5.53;1.60;;;;;;;;;;5132746;27;20923;-85
2022/11/22 10:01:32;;;;;;;8.55;1.50;;;;;;;;;;5132669;27;20379;-85
2022/11/22 10:04:10;;;;;;;6.97;1.60;;;;;;;;;;5132641;27;20486;-85
2022/11/22 10:06:36;;;;;;;4.75;1.60;;;;;;;;;;5132647;27;20407;-85
2022/11/22 10:09:08;;;;;;;5.33;1.60;;;;;;;;;;5132639;27;20383;-85
2022/11/22 10:11:49;;;;;;;5.55;1.40;;;;;;;;;;5113732;27;20788;-85
2022/11/22 10:14:14;;;;;;;7.03;1.88;;;;;;;;;;5132443;27;20448;-86
2022/11/22 10:16:43;;;;;;;7.20;1.77;;;;;;;;;;5123505;27;20369;-85
2022/11/22 10:19:29;;;;;;;5.45;1.50;;;;;;;;;;5132505;28;20405;-86
2022/11/22 10:21:55;;;;;;;6.15;1.45;;;;;;;;;;5131973;27;20391;-85
2022/11/22 10:24:21;;;;;;;4.30;1.73;;;;;;;;;;5127387;27;20909;-86
2022/11/22 10:26:48;;;;;;;8.05;1.88;;;;;;;;;;5132107;27;20374;-85
2022/11/22 10:29:24;;;;;;;6.57;1.90;;;;;;;;;;5132231;27;20461;-84
2022/11/22 10:31:50;;;;;;;5.40;1.60;;;;;;;;;;5132448;27;20471;-86
2022/11/22 10:34:39;;;;;;;5.63;1.65;;;;;;;;;;5132200;27;20388;-85
2022/11/22 10:37:13;;;;;;;5.22;1.77;;;;;;;;;;5098866;28;20870;-85
2022/11/22 10:39:42;;;;;;;4.68;1.67;;;;;;;;;;5132205;27;20401;-86
2022/11/22 10:42:14;;;;;;;5.67;1.70;;;;;;;;;;5133979;27;20379;-86
2022/11/22 10:44:43;;;;;;;5.43;1.50;;;;;;;;;;5135785;27;20520;-86
2022/11/22 10:47:32;;;;;;;4.13;1.50;;;;;;;;;;5135803;27;20386;-86
2022/11/22 10:50:05;;;;;;;4.97;1.58;;;;;;;;;;5135831;27;20432;-86
2022/11/22 10:52:49;;;;;;;5.50;1.75;;;;;;;;;;5135649;27;20965;-86
2022/11/22 10:55:34;;;;;;;4.32;1.67;;;;;;;;;;5135532;27;20891;-85
2022/11/22 10:58:06;;;;;;;6.43;2.00;;;;;;;;;;5135503;27;20490;-85
2022/11/22 11:00:32;;;;;;;4.37;1.70;;;;;;;;;;5117403;27;20499;-86
2022/11/22 11:03:01;;;;;;;5.68;1.95;;;;;;;;;;5135389;27;20374;-86
2022/11/22 11:05:49;;;;;;;7.15;2.10;;;;;;;;;;5135530;27;20398;-85
2022/11/22 11:08:31;;;;;;;5.60;2.00;;;;;;;;;;5135343;27;20375;-86
2022/11/22 11:10:57;;;;;;;6.65;1.95;;;;;;;;;;5135327;27;20414;-86
2022/11/22 11:13:25;;;;;;;4.88;1.40;;;;;;;;;;5134998;27;20887;-86
2022/11/22 11:15:53;;;;;;;4.93;1.40;;;;;;;;;;5133330;27;20380;-85
2022/11/22 11:18:23;;;;;;;4.93;1.77;;;;;;;;;;5137487;27;20415;-85
2022/11/22 11:20:51;;;;;;;5.05;1.50;;;;;;;;;;5135094;27;20429;-86
2022/11/22 11:23:17;;;;;;;6.53;1.83;;;;;;;;;;5134448;27;20824;-86
2022/11/22 11:25:47;;;;;;;5.60;1.70;;;;;;;;;;5122846;27;20366;-86
2022/11/22 11:28:17;;;;;;;4.67;1.80;;;;;;;;;;5134885;27;20840;-85
2022/11/22 11:31:00;;;;;;;7.50;1.83;;;;;;;;;;5135068;27;20437;-86
2022/11/22 11:33:30;;;;;;;5.18;1.90;;;;;;;;;;5134737;27;20406;-85
2022/11/22 11:36:06;;;;;;;3.78;1.90;;;;;;;;;;5136939;27;20371;-85
2022/11/22 11:38:32;;;;;;;5.57;2.10;;;;;;;;;;5134811;27;20501;-84
2022/11/22 11:41:16;;;;;;;6.47;2.17;;;;;;;;;;5147443;27;20453;-85
2022/11/22 11:43:42;;;;;;;5.55;1.88;;;;;;;;;;5126782;27;20433;-86
2022/11/22 11:46:16;;;;;;;6.63;2.28;;;;;;;;;;5134154;27;20409;-85
2022/11/22 11:48:42;;;;;;;4.82;2.40;;;;;;;;;;5124664;27;20441;-86
2022/11/22 11:51:37;;;;;;;5.35;2.40;;;;;;;;;;5134065;27;20428;-86
2022/11/22 11:54:30;;;;;;;5.75;2.55;;;;;;;;;;5112639;27;20439;-85
2022/11/22 11:56:59;;;;;;;4.65;2.75;;;;;;;;;;5094616;27;20454;-86
2022/11/22 11:59:31;;;;;;;4.22;2.40;;;;;;;;;;5132594;27;20366;-85
2022/11/22 12:02:18;;;;;;;5.63;2.75;;;;;;;;;;5102046;27;20434;-86
2022/11/22 12:04:48;;;;;;;5.13;2.90;;;;;;;;;;5128966;27;20375;-86
2022/11/22 12:07:17;;;;;;;7.97;3.13;;;;;;;;;;5133954;27;20375;-86
2022/11/22 12:09:44;;;;;;;5.20;3.30;;;;;;;;;;5133430;27;20410;-86
2022/11/22 12:12:31;;;;;;;4.68;2.92;;;;;;;;;;5124992;27;20405;-84
2022/11/22 12:15:11;;;;;;;5.07;2.90;;;;;;;;;;5116417;27;20550;-85
2022/11/22 12:17:41;;;;;;;6.03;3.20;;;;;;;;;;5132935;27;20379;-85
2022/11/22 12:20:11;;;;;;;4.30;2.55;;;;;;;;;;5130809;27;20367;-85
2022/11/22 12:22:43;;;;;;;6.53;2.90;;;;;;;;;;5133954;27;20377;-86
2022/11/22 12:25:09;;;;;;;5.97;2.80;;;;;;;;;;5133684;27;20473;-85
2022/11/22 12:27:35;;;;;;;4.60;2.75;;;;;;;;;;5115266;27;20474;-85
2022/11/22 12:30:01;;;;;;;6.40;2.90;;;;;;;;;;5132495;27;20383;-86
2022/11/22 12:32:31;;;;;;;4.72;2.60;;;;;;;;;;5131052;27;20913;-85
2022/11/22 12:34:59;;;;;;;5.18;3.35;;;;;;;;;;5133711;27;20382;-87
2022/11/22 12:37:31;;;;;;;3.65;2.53;;;;;;;;;;5128972;27;20405;-86
2022/11/22 12:40:00;;;;;;;4.70;2.20;;;;;;;;;;5133815;27;20377;-85
2022/11/22 12:42:32;;;;;;;4.07;1.98;;;;;;;;;;5134033;27;20371;-85
2022/11/22 12:45:01;;;;;;;6.07;2.85;;;;;;;;;;5127698;27;20373;-85
2022/11/22 12:47:46;;;;;;;4.17;2.10;;;;;;;;;;5131551;27;20399;-86
2022/11/22 12:50:16;;;;;;;4.13;2.10;;;;;;;;;;5128395;27;20398;-86
2022/11/22 12:52:47;;;;;;;4.03;2.30;;;;;;;;;;5144637;27;20399;-86
2022/11/22 12:55:17;;;;;;;3.63;2.00;;;;;;;;;;5149507;27;20378;-83
2022/11/22 12:57:43;;;;;;;6.95;2.45;;;;;;;;;;5143797;27;20435;-85
2022/11/22 13:00:14;;;;;;;4.40;1.83;;;;;;;;;;5137670;27;20383;-86
2022/11/22 13:02:46;;;;;;;3.47;1.83;;;;;;;;;;5136439;27;20400;-87
2022/11/22 13:05:23;;;;;;;2.92;1.60;;;;;;;;;;5134927;27;20972;-88
2022/11/22 13:07:52;;;;;;;3.75;1.73;;;;;;;;;;5115845;27;20928;-87
2022/11/22 13:10:18;;;;;;;3.88;1.75;;;;;;;;;;5136610;27;20379;-87
2022/11/22 13:12:45;;;;;;;4.57;2.20;;;;;;;;;;5134116;27;20454;-89
2022/11/22 13:15:18;;;;;;;5.20;1.90;;;;;;;;;;5114149;27;20387;-89
2022/11/22 13:17:45;;;;;;;4.88;1.70;;;;;;;;;;5125074;27;20371;-91
2022/11/22 13:20:25;;;;;;;4.65;1.70;;;;;;;;;;5134114;27;20375;-90
2022/11/22 13:23:10;;;;;;;4.40;1.60;;;;;;;;;;5133777;27;20459;-89
2022/11/22 13:25:42;;;;;;;3.95;1.70;;;;;;;;;;5137192;27;20443;-90
2022/11/22 13:28:13;;;;;;;3.75;1.30;;;;;;;;;;5113158;28;20461;-90
2022/11/22 13:30:39;;;;;;;3.47;1.40;;;;;;;;;;5112850;28;20432;-89
2022/11/22 13:33:05;;;;;;;3.20;1.20;;;;;;;;;;5113027;28;20418;-90
2022/11/22 13:35:32;;;;;;;3.92;1.38;;;;;;;;;;5120206;28;20413;-91
2022/11/22 13:38:03;;;;;;;5.47;1.35;;;;;;;;;;5133569;27;20393;-89
2022/11/22 13:40:31;;;;;;;4.85;1.52;;;;;;;;;;5133438;27;20429;-89
2022/11/22 13:43:15;;;;;;;3.33;1.70;;;;;;;;;;5133092;27;20375;-89
2022/11/22 13:45:51;;;;;;;3.35;1.70;;;;;;;;;;5133119;27;20462;-89
2022/11/22 13:48:36;;;;;;;5.63;2.05;;;;;;;;;;5133620;27;20370;-90
2022/11/22 13:51:02;;;;;;;4.97;2.57;;;;;;;;;;5133282;27;20528;-90
2022/11/22 13:53:29;;;;;;;4.93;2.38;;;;;;;;;;5133166;27;20405;-90
2022/11/22 13:55:57;;;;;;;3.35;1.90;;;;;;;;;;5133196;27;20420;-90
2022/11/22 13:58:26;;;;;;;4.07;1.98;;;;;;;;;;5132983;27;20371;-90
2022/11/22 14:00:53;;;;;;;4.00;1.47;;;;;;;;;;5106869;28;20377;-90
2022/11/22 14:03:22;;;;;;;2.70;1.35;;;;;;;;;;5130755;27;20386;-89
2022/11/22 14:05:49;;;;;;;3.45;1.40;;;;;;;;;;5133780;28;20366;-91
2022/11/22 14:08:30;;;;;;;3.65;1.40;;;;;;;;;;5133186;27;20525;-90
2022/11/22 14:10:55;;;;;;;3.92;1.48;;;;;;;;;;5133012;27;20445;-89
2022/11/22 14:13:31;;;;;;;4.10;1.50;;;;;;;;;;5132779;27;20412;-90
2022/11/22 14:15:57;;;;;;;3.80;1.02;;;;;;;;;;5128793;27;20384;-90
2022/11/22 14:18:31;;;;;;;3.55;1.13;;;;;;;;;;5132497;27;20370;-90
2022/11/22 14:21:04;;;;;;;2.97;0.98;;;;;;;;;;5137187;27;20378;-89
2022/11/22 14:23:40;;;;;;;3.58;0.90;;;;;;;;;;5118660;27;20443;-90
2022/11/22 14:26:09;;;;;;;3.40;1.10;;;;;;;;;;5146596;27;20427;-89
2022/11/22 14:28:50;;;;;;;2.42;1.00;;;;;;;;;;5124658;27;20412;-90
2022/11/22 14:31:28;;;;;;;1.70;0.88;;;;;;;;;;5133563;27;20522;-90
2022/11/22 14:34:14;;;;;;;2.15;0.95;;;;;;;;;;5135216;27;20379;-89
2022/11/22 14:36:40;;;;;;;2.50;1.00;;;;;;;;;;5136172;27;20499;-89
2022/11/22 14:39:25;;;;;;;2.70;1.13;;;;;;;;;;5117613;27;20511;-90
2022/11/22 14:41:51;;;;;;;2.38;0.80;;;;;;;;;;5135949;27;20367;-90
2022/11/22 14:44:22;;;;;;;4.73;1.30;;;;;;;;;;5135898;27;20875;-89
2022/11/22 14:47:01;;;;;;;2.90;1.15;;;;;;;;;;5136024;27;20414;-89
2022/11/22 14:49:27;;;;;;;3.63;1.20;;;;;;;;;;5136013;27;20430;-89
2022/11/22 14:51:54;;;;;;;2.35;0.82;;;;;;;;;;5135738;27;20541;-90
2022/11/22 14:54:34;;;;;;;3.40;1.20;;;;;;;;;;5135857;27;20386;-90
2022/11/22 14:57:04;;;;;;;2.50;1.00;;;;;;;;;;5135927;27;20462;-90
2022/11/22 14:59:29;;;;;;;3.07;1.23;;;;;;;;;;5135519;27;20383;-89
2022/11/22 15:02:04;;;;;;;3.88;1.15;;;;;;;;;;5117450;27;20982;-90
2022/11/22 15:04:48;;;;;;;2.85;1.05;;;;;;;;;;5135773;27;20386;-91